Time;durP1;ratioP1;P1;durP2;ratioP2;P2;SDS_P1;SDS_P2;PMS_P1;PMS_P2;Temp;Humidity;BMP_temperature;BMP_pressure;BME280_temperature;BME280_humidity;BME280_pressure;Samples;Min_cycle;Max_cycle;Signal;HPM_P1;HPM_P2
2021/03/20 00:01:14;;;;;;;1.67;0.50;;;;;;;7.74;47.59;101731.38;4888525;28;98021;-61
2021/03/20 00:03:40;;;;;;;2.13;0.47;;;;;;;7.76;47.54;101731.16;4921879;28;98450;-58
2021/03/20 00:06:06;;;;;;;1.92;0.50;;;;;;;7.73;47.41;101737.78;4921934;28;106721;-58
2021/03/20 00:08:33;;;;;;;1.90;0.50;;;;;;;7.72;47.43;101736.13;4886211;28;127098;-58
2021/03/20 00:10:59;;;;;;;1.65;0.40;;;;;;;7.69;47.34;101733.06;4919093;28;122878;-58
2021/03/20 00:13:25;;;;;;;2.10;0.50;;;;;;;7.71;47.40;101737.19;4919550;28;110848;-58
2021/03/20 00:15:56;;;;;;;2.05;0.55;;;;;;;7.71;47.39;101729.13;4918618;28;115083;-58
2021/03/20 00:18:22;;;;;;;2.08;0.60;;;;;;;7.66;47.76;101734.31;4921257;28;98011;-58
2021/03/20 00:20:48;;;;;;;1.58;0.47;;;;;;;7.62;47.34;101742.00;4921540;28;97961;-58
2021/03/20 00:23:15;;;;;;;2.00;0.80;;;;;;;7.61;47.26;101745.69;4920401;28;115387;-60
2021/03/20 00:25:41;;;;;;;2.78;0.65;;;;;;;7.61;47.44;101739.50;4922411;28;98786;-61
2021/03/20 00:28:23;;;;;;;2.33;0.70;;;;;;;7.57;47.77;101749.84;4921644;28;97990;-58
2021/03/20 00:30:52;;;;;;;2.57;0.67;;;;;;;7.60;47.58;101744.06;4922163;28;97868;-57
2021/03/20 00:33:18;;;;;;;1.90;0.70;;;;;;;7.56;47.86;101739.34;4952601;28;98376;-58
2021/03/20 00:35:44;;;;;;;2.35;0.70;;;;;;;7.56;47.75;101739.34;4921296;28;99037;-59
2021/03/20 00:38:11;;;;;;;2.65;0.80;;;;;;;7.54;47.70;101739.53;4921405;28;98389;-57
2021/03/20 00:40:37;;;;;;;2.22;0.70;;;;;;;7.53;48.08;101745.97;4922154;28;97838;-58
2021/03/20 00:43:03;;;;;;;2.38;0.80;;;;;;;7.55;47.59;101743.91;4919050;28;100386;-58
2021/03/20 00:45:29;;;;;;;2.03;0.60;;;;;;;7.54;47.71;101757.50;4924956;28;98764;-58
2021/03/20 00:47:56;;;;;;;1.90;0.50;;;;;;;7.53;48.13;101762.06;4906471;28;97892;-57
2021/03/20 00:50:24;;;;;;;2.38;0.68;;;;;;;7.51;47.77;101766.03;4907126;28;97869;-58
2021/03/20 00:52:51;;;;;;;1.52;0.50;;;;;;;7.46;48.12;101760.44;4923921;28;98305;-60
2021/03/20 00:55:17;;;;;;;2.03;0.60;;;;;;;7.48;48.33;101758.41;4923976;28;125986;-58
2021/03/20 00:57:43;;;;;;;1.27;0.47;;;;;;;7.43;48.11;101760.88;4922998;28;99062;-60
2021/03/20 01:00:14;;;;;;;1.83;0.47;;;;;;;7.42;47.81;101757.38;4923304;28;123137;-60
2021/03/20 01:02:40;;;;;;;1.70;0.60;;;;;;;7.44;48.08;101757.19;4924158;28;99042;-58
2021/03/20 01:05:08;;;;;;;2.88;0.80;;;;;;;7.41;48.26;101758.41;4924275;28;98824;-60
2021/03/20 01:07:34;;;;;;;2.33;0.55;;;;;;;7.43;47.92;101759.03;4923275;28;115319;-60
2021/03/20 01:10:00;;;;;;;2.08;0.73;;;;;;;7.42;48.20;101760.06;4923356;28;122351;-57
2021/03/20 01:12:26;;;;;;;2.38;0.80;;;;;;;7.38;48.40;101758.84;4923742;28;99165;-60
2021/03/20 01:14:52;;;;;;;1.60;0.40;;;;;;;7.44;47.93;101762.53;4924134;28;99503;-58
2021/03/20 01:17:18;;;;;;;2.47;0.55;;;;;;;7.43;48.16;101761.72;4923555;28;114432;-60
2021/03/20 01:19:45;;;;;;;2.45;0.70;;;;;;;7.37;48.17;101768.75;4924159;28;122624;-58
2021/03/20 01:22:11;;;;;;;2.45;0.52;;;;;;;7.36;48.36;101769.81;4923291;28;125068;-57
2021/03/20 01:24:37;;;;;;;2.08;0.60;;;;;;;7.36;48.17;101769.81;4923870;28;120434;-60
2021/03/20 01:27:03;;;;;;;2.35;0.60;;;;;;;7.35;48.27;101770.84;4923190;28;127588;-60
2021/03/20 01:29:29;;;;;;;2.08;0.60;;;;;;;7.33;47.90;101764.84;4924109;28;97803;-60
2021/03/20 01:31:55;;;;;;;3.00;0.70;;;;;;;7.34;48.25;101771.03;4923667;28;106901;-60
2021/03/20 01:34:22;;;;;;;2.20;0.70;;;;;;;7.31;47.97;101764.25;4924067;28;113816;-60
2021/03/20 01:36:48;;;;;;;1.63;0.45;;;;;;;7.25;47.91;101765.09;4954352;28;123839;-57
2021/03/20 01:39:14;;;;;;;2.55;0.50;;;;;;;7.30;48.32;101767.13;4921793;28;98007;-60
2021/03/20 01:41:42;;;;;;;2.15;0.57;;;;;;;7.29;48.64;101758.28;4922824;28;118537;-58
2021/03/20 01:44:16;;;;;;;2.10;0.60;;;;;;;7.32;48.04;101765.91;4924174;28;98972;-60
2021/03/20 01:46:56;;;;;;;2.47;0.50;;;;;;;7.25;48.74;101757.06;4921316;28;99107;-60
2021/03/20 01:49:34;;;;;;;2.10;0.50;;;;;;;7.27;48.64;101764.88;4921569;28;121706;-58
2021/03/20 01:52:21;;;;;;;1.90;0.50;;;;;;;7.23;48.12;101767.19;4921793;28;98228;-57
2021/03/20 01:55:08;;;;;;;2.08;0.50;;;;;;;7.23;48.21;101758.28;4921296;28;98502;-57
2021/03/20 01:57:58;;;;;;;2.15;0.60;;;;;;;7.26;48.65;101763.25;4921527;28;98471;-58
2021/03/20 02:00:36;;;;;;;1.50;0.47;;;;;;;7.19;48.41;101765.13;4914353;28;98516;-58
2021/03/20 02:03:06;;;;;;;2.00;0.70;;;;;;;7.17;48.57;101772.56;4921002;28;98183;-60
2021/03/20 02:05:32;;;;;;;2.17;0.52;;;;;;;7.17;48.40;101757.31;4922757;28;98364;-60
2021/03/20 02:08:00;;;;;;;1.90;0.50;;;;;;;7.18;48.45;101767.00;4922978;28;98191;-60
2021/03/20 02:10:28;;;;;;;2.58;0.63;;;;;;;7.16;48.74;101766.41;4953922;28;111634;-57
2021/03/20 02:12:56;;;;;;;2.28;0.63;;;;;;;7.16;48.22;101770.94;4905485;28;97998;-57
2021/03/20 02:15:34;;;;;;;2.33;0.60;;;;;;;7.13;48.77;101778.38;4921322;28;98309;-60
2021/03/20 02:18:22;;;;;;;1.67;0.50;;;;;;;7.09;48.99;101771.78;4905758;28;98449;-60
2021/03/20 02:20:58;;;;;;;1.92;0.60;;;;;;;7.13;48.51;101783.72;4904301;28;97873;-57
2021/03/20 02:24:00;;;;;;;1.52;0.50;;;;;;;7.08;48.53;101770.13;4948896;28;98958;-60
2021/03/20 02:26:50;;;;;;;2.35;0.55;;;;;;;7.05;48.68;101770.56;4935193;28;99911;-60
2021/03/20 02:29:47;;;;;;;1.85;0.50;;;;;;;7.06;48.93;101771.38;4923251;28;98983;-60
2021/03/20 02:32:58;;;;;;;1.73;0.47;;;;;;;7.04;48.89;101768.09;4921027;28;97963;-57
2021/03/20 02:36:18;;;;;;;2.63;0.50;;;;;;;7.00;48.71;101772.25;4921167;28;100932;-60
2021/03/20 02:39:21;;;;;;;1.88;0.40;;;;;;;6.99;48.64;101768.72;4921323;28;101219;-57
2021/03/20 02:42:12;;;;;;;1.65;0.50;;;;;;;7.00;48.91;101772.25;4923561;28;98400;-59
2021/03/20 02:44:51;;;;;;;2.10;0.57;;;;;;;7.04;48.36;101763.56;4905406;28;97980;-57
2021/03/20 02:47:25;;;;;;;2.00;0.60;;;;;;;7.06;48.10;101757.97;4938044;28;98464;-57
2021/03/20 02:50:07;;;;;;;1.52;0.50;;;;;;;7.14;48.51;101757.72;4905828;28;99197;-60
2021/03/20 02:52:43;;;;;;;1.77;0.40;;;;;;;7.13;48.10;101756.09;4919811;28;97959;-60
2021/03/20 02:55:18;;;;;;;2.15;0.55;;;;;;;7.13;47.92;101756.91;4904869;28;109229;-58
2021/03/20 02:58:06;;;;;;;2.60;0.50;;;;;;;7.19;48.07;101754.41;4920386;28;98466;-58
2021/03/20 03:00:52;;;;;;;2.75;0.52;;;;;;;7.16;47.74;101757.53;4905161;28;97830;-58
2021/03/20 03:03:18;;;;;;;3.80;0.80;;;;;;;7.16;48.53;101753.00;4892894;28;98056;-60
2021/03/20 03:06:08;;;;;;;2.03;0.60;;;;;;;7.13;48.22;101756.91;4886843;28;109259;-58
2021/03/20 03:08:47;;;;;;;1.85;0.50;;;;;;;7.15;47.75;101751.31;4920560;28;98507;-60
2021/03/20 03:11:27;;;;;;;1.83;0.50;;;;;;;7.16;48.27;101757.53;4905217;28;98820;-58
2021/03/20 03:14:05;;;;;;;1.88;0.60;;;;;;;7.09;47.87;101754.88;4904779;28;98121;-60
2021/03/20 03:16:37;;;;;;;1.60;0.43;;;;;;;7.11;47.86;101767.03;4936872;28;97780;-60
2021/03/20 03:19:10;;;;;;;1.63;0.50;;;;;;;7.06;48.03;101774.06;4904702;28;98486;-57
2021/03/20 03:21:40;;;;;;;1.50;0.50;;;;;;;7.07;48.18;101768.50;4936826;28;100082;-61
2021/03/20 03:24:09;;;;;;;1.63;0.57;;;;;;;7.08;48.09;101772.81;4953552;28;98159;-57
2021/03/20 03:26:42;;;;;;;1.70;0.40;;;;;;;7.01;48.12;101777.38;4904511;28;98229;-60
2021/03/20 03:29:15;;;;;;;2.58;0.68;;;;;;;7.02;47.88;101781.69;4920349;28;98632;-57
2021/03/20 03:32:15;;;;;;;2.13;0.60;;;;;;;6.99;48.49;101786.66;4904103;28;98139;-60
2021/03/20 03:34:54;;;;;;;2.33;0.50;;;;;;;6.97;48.19;101783.38;4905292;28;98622;-58
2021/03/20 03:37:48;;;;;;;2.38;0.50;;;;;;;6.97;48.32;101786.88;4904833;28;98041;-60
2021/03/20 03:40:35;;;;;;;1.58;0.40;;;;;;;6.92;47.97;101788.53;4905990;28;99132;-57
2021/03/20 03:43:01;;;;;;;1.88;0.60;;;;;;;6.94;48.23;101791.84;4905642;28;98706;-58
2021/03/20 03:45:27;;;;;;;2.30;0.50;;;;;;;6.94;48.12;101795.34;4919718;28;100091;-60
2021/03/20 03:47:54;;;;;;;2.15;0.50;;;;;;;6.93;48.28;101804.44;4921048;28;123311;-60
2021/03/20 03:50:30;;;;;;;2.03;0.50;;;;;;;6.90;48.66;101799.47;4919738;28;98317;-57
2021/03/20 03:52:56;;;;;;;1.77;0.43;;;;;;;6.93;48.14;101803.59;4921299;28;116089;-60
2021/03/20 03:55:22;;;;;;;2.08;0.40;;;;;;;6.87;48.08;101805.25;4920343;28;98291;-57
2021/03/20 03:58:00;;;;;;;1.65;0.60;;;;;;;6.81;48.65;101803.44;4919922;28;98013;-60
2021/03/20 04:00:41;;;;;;;1.58;0.40;;;;;;;6.80;48.21;101805.28;4921783;28;98128;-57
2021/03/20 04:03:14;;;;;;;1.42;0.30;;;;;;;6.85;47.80;101810.00;4904930;28;99230;-57
2021/03/20 04:06:01;;;;;;;1.95;0.43;;;;;;;6.83;48.43;101802.16;4919974;28;98521;-58
2021/03/20 04:09:03;;;;;;;1.20;0.40;;;;;;;6.81;48.32;101812.28;4920576;28;97809;-58
2021/03/20 04:11:59;;;;;;;1.75;0.50;;;;;;;6.80;48.54;101815.19;4919651;28;98779;-60
2021/03/20 04:14:38;;;;;;;2.17;0.55;;;;;;;6.78;48.39;101820.75;4920974;28;99048;-57
2021/03/20 04:17:11;;;;;;;1.77;0.40;;;;;;;6.80;48.49;101816.00;4918856;28;111237;-58
2021/03/20 04:19:57;;;;;;;1.60;0.40;;;;;;;6.78;47.79;101825.28;4919270;28;102093;-60
2021/03/20 04:22:47;;;;;;;1.92;0.40;;;;;;;6.74;48.42;101824.06;4918770;28;115388;-58
2021/03/20 04:25:38;;;;;;;2.17;0.50;;;;;;;6.74;47.93;101829.41;4920273;28;98668;-59
2021/03/20 04:28:26;;;;;;;1.55;0.35;;;;;;;6.73;48.30;101830.47;4902369;28;99605;-60
2021/03/20 04:31:02;;;;;;;1.30;0.30;;;;;;;6.75;48.52;101828.38;4921752;28;97700;-57
2021/03/20 04:33:48;;;;;;;1.67;0.50;;;;;;;6.69;48.37;101832.72;4919488;28;98848;-57
2021/03/20 04:36:23;;;;;;;1.60;0.40;;;;;;;6.70;48.27;101831.69;4890105;28;98439;-58
2021/03/20 04:38:49;;;;;;;1.63;0.50;;;;;;;6.72;48.38;101826.97;4918267;28;106080;-60
2021/03/20 04:41:15;;;;;;;2.40;0.50;;;;;;;6.73;48.30;101827.78;4885915;28;123182;-60
2021/03/20 04:43:41;;;;;;;2.17;0.50;;;;;;;6.70;48.33;101831.69;4901642;28;129953;-57
2021/03/20 04:46:24;;;;;;;1.55;0.60;;;;;;;6.68;48.08;101835.59;4902779;28;128696;-60
2021/03/20 04:49:07;;;;;;;2.50;0.50;;;;;;;6.69;48.23;101834.59;4919596;28;98424;-60
2021/03/20 04:51:42;;;;;;;1.65;0.50;;;;;;;6.69;48.23;101831.91;4919049;28;97886;-57
2021/03/20 04:54:12;;;;;;;1.88;0.40;;;;;;;6.66;48.21;101832.31;4919169;28;99142;-58
2021/03/20 04:57:10;;;;;;;2.50;0.40;;;;;;;6.68;48.31;101824.88;4936067;28;99735;-60
2021/03/20 04:59:50;;;;;;;2.35;0.60;;;;;;;6.67;47.88;101826.72;4917804;28;98509;-60
2021/03/20 05:02:26;;;;;;;2.63;0.50;;;;;;;6.64;48.13;101828.00;4919641;28;97992;-59
2021/03/20 05:04:55;;;;;;;1.65;0.30;;;;;;;6.63;48.57;101831.69;4918932;28;97997;-58
2021/03/20 05:07:21;;;;;;;1.20;0.40;;;;;;;6.64;48.07;101829.81;4902975;28;98376;-59
2021/03/20 05:09:55;;;;;;;1.92;0.57;;;;;;;6.66;48.21;101832.31;4918560;28;126196;-60
2021/03/20 05:12:25;;;;;;;1.83;0.43;;;;;;;6.63;48.49;101833.53;4919622;28;97866;-58
2021/03/20 05:15:02;;;;;;;1.90;0.40;;;;;;;6.57;47.79;101829.84;4921015;28;99058;-57
2021/03/20 05:17:28;;;;;;;1.60;0.50;;;;;;;6.60;48.05;101834.81;4903553;28;98355;-60
2021/03/20 05:19:54;;;;;;;2.20;0.45;;;;;;;6.58;48.36;101831.50;4920327;28;115198;-58
2021/03/20 05:22:28;;;;;;;2.63;0.50;;;;;;;6.55;48.05;101842.63;4920967;28;97758;-57
2021/03/20 05:24:55;;;;;;;1.73;0.52;;;;;;;6.58;48.28;101847.56;4920619;28;98220;-60
2021/03/20 05:27:27;;;;;;;2.10;0.50;;;;;;;6.57;48.11;101851.28;4921267;28;97940;-58
2021/03/20 05:29:53;;;;;;;1.60;0.30;;;;;;;6.54;48.09;101851.69;4922625;28;97946;-60
2021/03/20 05:32:26;;;;;;;1.25;0.35;;;;;;;6.57;48.10;101858.50;4924266;28;98082;-59
2021/03/20 05:34:54;;;;;;;1.75;0.50;;;;;;;6.60;47.86;101856.25;4922509;28;98589;-58
2021/03/20 05:37:38;;;;;;;1.50;0.40;;;;;;;6.57;48.22;101853.16;4923674;28;98177;-58
2021/03/20 05:40:11;;;;;;;2.20;0.50;;;;;;;6.63;48.36;101853.13;4923950;28;98115;-58
2021/03/20 05:42:58;;;;;;;1.75;0.60;;;;;;;6.69;48.37;101853.34;4938662;28;97996;-60
2021/03/20 05:45:43;;;;;;;1.33;0.50;;;;;;;6.69;47.64;101840.75;4906561;28;98431;-60
2021/03/20 05:48:29;;;;;;;1.55;0.43;;;;;;;6.71;47.84;101844.03;4922052;28;98997;-60
2021/03/20 05:51:26;;;;;;;1.90;0.70;;;;;;;6.81;47.84;101857.84;4906858;28;98139;-57
2021/03/20 05:54:29;;;;;;;2.35;0.65;;;;;;;6.89;47.30;101872.91;4924086;28;97861;-60
2021/03/20 05:57:12;;;;;;;1.77;0.45;;;;;;;6.92;47.23;101872.50;4920989;28;99070;-60
2021/03/20 06:00:22;;;;;;;1.90;0.50;;;;;;;7.01;47.36;101860.50;4918440;28;99251;-57
2021/03/20 06:03:16;;;;;;;2.00;0.55;;;;;;;7.09;47.62;101864.81;4861079;28;113166;-57
2021/03/20 06:05:52;;;;;;;1.48;0.60;;;;;;;7.16;46.96;101868.31;4863444;28;97943;-60
2021/03/20 06:09:19;;;;;;;1.67;0.45;;;;;;;7.26;47.44;101870.53;4909546;28;98424;-58
2021/03/20 06:12:13;;;;;;;1.65;0.60;;;;;;;7.32;47.29;101872.38;4937346;28;98314;-58
2021/03/20 06:15:21;;;;;;;1.73;0.52;;;;;;;7.41;47.17;101868.41;4932027;28;117322;-60
2021/03/20 06:18:18;;;;;;;2.20;0.80;;;;;;;7.52;47.03;101872.31;4919118;28;98248;-57
2021/03/20 06:21:16;;;;;;;2.05;0.60;;;;;;;7.58;47.24;101869.59;4920396;28;98374;-57
2021/03/20 06:24:21;;;;;;;2.00;0.63;;;;;;;7.65;47.04;101869.56;4904556;28;98789;-60
2021/03/20 06:26:47;;;;;;;1.17;0.50;;;;;;;7.73;47.19;101868.47;4919018;28;113605;-60
2021/03/20 06:29:19;;;;;;;2.42;0.80;;;;;;;7.85;47.00;101869.44;4917883;28;118540;-60
2021/03/20 06:32:20;;;;;;;2.03;0.60;;;;;;;7.92;47.04;101874.78;4917327;28;98551;-60
2021/03/20 06:35:08;;;;;;;2.22;0.68;;;;;;;8.00;47.16;101878.03;4918297;28;98359;-58
2021/03/20 06:37:40;;;;;;;2.50;0.70;;;;;;;8.01;46.97;101863.56;4917724;28;98311;-59
2021/03/20 06:40:24;;;;;;;2.28;0.60;;;;;;;8.17;47.05;101869.47;4902004;28;98467;-60
2021/03/20 06:42:51;;;;;;;2.40;0.60;;;;;;;8.22;47.14;101869.66;4917256;28;98288;-58
2021/03/20 06:45:29;;;;;;;1.83;0.70;;;;;;;8.23;46.91;101873.97;4918192;28;98576;-58
2021/03/20 06:48:10;;;;;;;2.83;0.70;;;;;;;8.47;46.92;101870.50;4919121;28;98065;-57
2021/03/20 06:50:55;;;;;;;2.38;0.80;;;;;;;8.58;46.93;101875.16;4920198;28;97859;-60
2021/03/20 06:54:03;;;;;;;2.10;0.80;;;;;;;8.61;46.60;101881.97;4918657;28;98715;-58
2021/03/20 06:56:30;;;;;;;2.10;0.50;;;;;;;8.61;47.09;101873.91;4904942;28;100730;-58
2021/03/20 06:58:57;;;;;;;2.60;0.80;;;;;;;8.64;47.24;101880.69;4917659;28;114309;-58
2021/03/20 07:01:35;;;;;;;2.35;0.73;;;;;;;8.68;47.03;101881.91;4919291;28;98059;-60
2021/03/20 07:04:52;;;;;;;2.22;0.80;;;;;;;8.76;47.45;101878.94;4917199;28;98678;-58
2021/03/20 07:07:53;;;;;;;1.58;0.77;;;;;;;8.84;46.86;101881.34;4917513;28;98184;-57
2021/03/20 07:10:34;;;;;;;2.88;0.93;;;;;;;8.88;47.41;101885.22;4917947;28;98015;-60
2021/03/20 07:13:13;;;;;;;2.35;0.80;;;;;;;8.92;47.56;101872.16;4950010;28;98057;-58
2021/03/20 07:15:39;;;;;;;2.13;0.50;;;;;;;8.96;47.93;101879.59;4918997;28;99488;-58
2021/03/20 07:18:20;;;;;;;1.85;0.60;;;;;;;9.08;47.51;101885.06;4919246;28;98729;-60
2021/03/20 07:20:46;;;;;;;2.42;0.77;;;;;;;9.16;47.83;101879.38;4917118;28;117425;-57
2021/03/20 07:23:14;;;;;;;2.47;0.60;;;;;;;9.25;47.70;101878.03;4919235;28;97840;-60
2021/03/20 07:26:03;;;;;;;2.55;0.60;;;;;;;9.36;47.75;101872.97;4934393;28;98289;-57
2021/03/20 07:28:29;;;;;;;1.92;0.50;;;;;;;9.52;47.35;101878.53;4917383;28;109364;-60
2021/03/20 07:31:10;;;;;;;3.25;0.60;;;;;;;9.71;46.55;101879.34;4918808;28;97920;-58
2021/03/20 07:33:47;;;;;;;2.15;0.68;;;;;;;9.88;46.67;101870.63;4918864;28;107249;-60
2021/03/20 07:36:35;;;;;;;1.92;0.60;;;;;;;10.11;46.61;101886.88;4917100;28;98276;-60
2021/03/20 07:39:21;;;;;;;2.35;0.65;;;;;;;10.28;46.32;101877.09;4917052;28;98969;-58
2021/03/20 07:41:57;;;;;;;1.90;0.50;;;;;;;10.30;46.65;101879.56;4919439;28;97907;-58
2021/03/20 07:44:30;;;;;;;2.83;0.50;;;;;;;10.38;46.47;101881.13;4919455;28;97862;-58
2021/03/20 07:46:56;;;;;;;1.58;0.45;;;;;;;10.91;45.46;101875.63;4918696;28;98810;-58
2021/03/20 07:49:31;;;;;;;1.80;0.50;;;;;;;11.50;44.17;101873.63;4917029;28;103098;-58
2021/03/20 07:52:03;;;;;;;2.08;0.60;;;;;;;12.02;43.08;101878.16;4916554;28;99143;-60
2021/03/20 07:54:35;;;;;;;1.33;0.50;;;;;;;12.38;42.46;101865.25;4918969;28;98254;-58
2021/03/20 07:57:16;;;;;;;2.35;0.73;;;;;;;12.99;41.08;101860.78;4919278;28;99477;-58
2021/03/20 07:59:52;;;;;;;2.90;1.00;;;;;;;13.13;41.12;101859.34;4917155;28;98129;-58
2021/03/20 08:02:40;;;;;;;2.45;0.80;;;;;;;13.07;41.59;101864.94;4916916;28;98217;-60
2021/03/20 08:05:20;;;;;;;3.80;0.90;;;;;;;12.97;41.75;101866.44;4915837;28;97923;-60
2021/03/20 08:07:48;;;;;;;1.90;0.75;;;;;;;13.46;41.08;101854.91;4914472;28;99266;-60
2021/03/20 08:10:33;;;;;;;2.33;0.65;;;;;;;14.32;39.79;101865.00;4919108;28;97805;-58
2021/03/20 08:13:14;;;;;;;2.10;0.60;;;;;;;15.16;38.27;101856.88;4918061;28;98344;-58
2021/03/20 08:15:42;;;;;;;1.88;0.70;;;;;;;15.78;36.75;101857.94;4918849;28;97895;-58
2021/03/20 08:18:20;;;;;;;1.50;0.50;;;;;;;17.98;33.45;101846.56;4918136;28;98879;-58
2021/03/20 08:21:12;;;;;;;1.85;0.60;;;;;;;20.59;29.59;101843.09;4919032;28;98596;-62
2021/03/20 08:24:06;;;;;;;2.00;0.40;;;;;;;20.96;28.89;101862.41;4900940;28;99146;-59
2021/03/20 08:26:58;;;;;;;1.50;0.50;;;;;;;18.30;33.14;101876.06;4916814;28;98034;-61
2021/03/20 08:29:58;;;;;;;1.52;0.30;;;;;;;17.52;34.76;101887.72;4917217;28;98734;-58
2021/03/20 08:32:52;;;;;;;1.00;0.40;;;;;;;16.69;35.96;101897.16;4918081;28;98039;-61
2021/03/20 08:35:27;;;;;;;1.02;0.30;;;;;;;16.39;36.71;101892.56;4915789;28;98637;-58
2021/03/20 08:38:30;;;;;;;1.15;0.30;;;;;;;15.61;38.17;101887.22;4884399;28;99097;-61
2021/03/20 08:41:07;;;;;;;1.58;0.30;;;;;;;14.78;40.14;101898.75;4917421;28;97919;-58
2021/03/20 08:43:52;;;;;;;0.98;0.30;;;;;;;14.25;40.53;101897.75;4901118;28;98308;-61
2021/03/20 08:46:54;;;;;;;1.30;0.30;;;;;;;13.76;41.28;101903.22;4916294;28;98309;-60
2021/03/20 08:49:25;;;;;;;1.20;0.22;;;;;;;13.56;41.75;101902.97;4935046;28;98021;-58
2021/03/20 08:52:11;;;;;;;1.15;0.30;;;;;;;13.94;40.61;101902.88;4916822;28;97864;-58
2021/03/20 08:54:56;;;;;;;1.48;0.20;;;;;;;15.47;37.83;101885.00;4900916;28;100721;-61
2021/03/20 08:57:55;;;;;;;1.67;0.22;;;;;;;16.82;35.30;101883.03;4916803;28;97835;-58
2021/03/20 09:00:36;;;;;;;1.05;0.20;;;;;;;18.35;33.87;101874.13;4947868;28;108744;-58
2021/03/20 09:03:13;;;;;;;1.55;0.22;;;;;;;18.98;32.85;101873.28;4915726;28;98287;-61
2021/03/20 09:05:47;;;;;;;1.70;0.30;;;;;;;19.67;32.59;101876.53;4903790;28;98731;-59
2021/03/20 09:08:35;;;;;;;1.85;0.30;;;;;;;20.84;31.55;101863.72;4903926;28;97956;-59
2021/03/20 09:11:04;;;;;;;1.25;0.35;;;;;;;21.68;30.69;101862.53;4921364;28;97915;-59
2021/03/20 09:13:44;;;;;;;1.13;0.25;;;;;;;21.81;30.97;101856.22;4921667;28;98785;-59
2021/03/20 09:16:39;;;;;;;1.30;0.28;;;;;;;22.60;29.93;101854.03;4915417;28;99225;-62
2021/03/20 09:19:08;;;;;;;0.95;0.20;;;;;;;23.02;29.33;101863.63;4914568;28;98409;-58
2021/03/20 09:21:37;;;;;;;1.10;0.30;;;;;;;23.33;29.02;101869.06;4919574;28;98908;-59
2021/03/20 09:24:13;;;;;;;0.90;0.20;;;;;;;22.90;29.84;101872.44;4919174;28;97883;-59
2021/03/20 09:26:47;;;;;;;1.38;0.20;;;;;;;23.43;29.31;101871.50;4904075;28;98854;-59
2021/03/20 09:30:32;;;;;;;1.25;0.20;;;;;;;25.06;27.33;101870.03;4921360;28;98205;-59
2021/03/20 09:32:59;;;;;;;0.90;0.20;;;;;;;24.09;28.65;101879.69;4908334;28;97952;-61
2021/03/20 09:35:37;;;;;;;1.00;0.20;;;;;;;22.92;29.67;101881.22;4903227;28;98437;-61
2021/03/20 09:38:04;;;;;;;1.08;0.25;;;;;;;21.85;31.03;101891.25;4918699;28;99018;-59
2021/03/20 09:40:50;;;;;;;1.17;0.28;;;;;;;20.96;31.25;101896.09;4919155;28;102885;-61
2021/03/20 09:43:38;;;;;;;1.10;0.20;;;;;;;20.32;31.91;101897.75;4902350;28;98091;-58
2021/03/20 09:46:35;;;;;;;1.00;0.20;;;;;;;19.43;32.73;101898.44;4920901;28;98559;-58
2021/03/20 09:49:25;;;;;;;1.45;0.30;;;;;;;18.59;33.77;101897.94;4920169;28;97994;-61
2021/03/20 09:51:51;;;;;;;0.77;0.20;;;;;;;18.09;33.65;101902.69;4913336;28;97970;-60
2021/03/20 09:54:27;;;;;;;1.60;0.20;;;;;;;17.88;33.71;101904.72;4921436;28;98188;-58
2021/03/20 09:57:12;;;;;;;0.95;0.30;;;;;;;18.11;33.63;101900.50;4918830;28;98660;-58
2021/03/20 09:59:37;;;;;;;1.00;0.20;;;;;;;18.75;32.63;101902.19;4919729;28;99147;-61
2021/03/20 10:02:11;;;;;;;1.13;0.30;;;;;;;19.78;31.38;101890.91;4920235;28;98176;-61
2021/03/20 10:04:58;;;;;;;0.88;0.22;;;;;;;21.66;29.29;101884.00;4919073;28;97983;-61
2021/03/20 10:07:24;;;;;;;1.63;0.40;;;;;;;22.35;28.82;101881.03;4919410;28;98042;-58
2021/03/20 10:10:11;;;;;;;1.40;0.40;;;;;;;22.99;28.31;101880.75;4920207;28;98458;-58
2021/03/20 10:12:42;;;;;;;1.85;0.40;;;;;;;23.80;27.72;101863.81;4917691;28;98421;-59
2021/03/20 10:15:14;;;;;;;1.73;0.40;;;;;;;23.42;28.16;101874.56;4919899;28;98118;-61
2021/03/20 10:18:08;;;;;;;1.50;0.30;;;;;;;22.86;28.95;101878.88;4919342;28;98186;-58
2021/03/20 10:20:54;;;;;;;1.98;0.40;;;;;;;22.03;29.85;101873.81;4919914;28;99543;-58
2021/03/20 10:23:42;;;;;;;1.20;0.30;;;;;;;21.14;31.07;101877.13;4919787;28;98515;-58
2021/03/20 10:26:46;;;;;;;1.20;0.30;;;;;;;20.45;31.48;101882.47;4919626;28;97840;-58
2021/03/20 10:29:18;;;;;;;1.10;0.30;;;;;;;19.71;32.06;101880.31;4917754;28;98422;-58
2021/03/20 10:31:46;;;;;;;;;;;;;;;19.56;31.92;101880.50;4920523;28;98741;-57
2021/03/20 10:34:16;;;;;;;1.00;0.30;;;;;;;19.16;32.63;101885.38;4919669;28;98151;-58
2021/03/20 10:36:48;;;;;;;1.00;0.30;;;;;;;18.80;32.78;101883.03;4920659;28;97917;-59
2021/03/20 10:39:34;;;;;;;1.43;0.30;;;;;;;18.36;33.76;101878.47;4934005;28;97914;-58
2021/03/20 10:42:29;;;;;;;1.10;0.25;;;;;;;18.05;34.15;101877.09;4918387;28;98649;-58
2021/03/20 10:45:23;;;;;;;2.13;0.22;;;;;;;17.77;34.65;101884.09;4917000;28;116930;-58
2021/03/20 10:47:49;;;;;;;0.63;0.15;;;;;;;17.43;35.36;101877.38;4905043;28;98006;-58
2021/03/20 10:50:34;;;;;;;0.90;0.20;;;;;;;17.53;34.69;101879.28;4917260;28;117617;-58
2021/03/20 10:53:05;;;;;;;0.93;0.20;;;;;;;17.68;34.58;101881.06;4917996;28;98471;-61
2021/03/20 10:55:40;;;;;;;1.20;0.30;;;;;;;18.06;33.73;101865.06;4917823;28;98158;-61
2021/03/20 10:58:08;;;;;;;1.08;0.20;;;;;;;18.36;33.08;101858.56;4902281;28;98353;-61
2021/03/20 11:00:50;;;;;;;0.88;0.20;;;;;;;18.33;33.58;101861.84;4901625;28;98037;-58
2021/03/20 11:03:42;;;;;;;;;;;;;;;18.68;33.24;101852.53;4919502;28;98694;-61
2021/03/20 11:06:17;;;;;;;0.70;0.20;;;;;;;18.68;33.07;101854.44;4915977;28;98339;-58
2021/03/20 11:08:45;;;;;;;0.90;0.20;;;;;;;19.30;32.13;101849.97;4918037;28;98050;-58
2021/03/20 11:11:27;;;;;;;0.77;0.20;;;;;;;19.75;31.96;101845.78;4917187;28;100789;-58
2021/03/20 11:14:02;;;;;;;0.60;0.13;;;;;;;19.69;32.49;101848.88;4919481;28;98902;-61
2021/03/20 11:16:28;;;;;;;0.95;0.20;;;;;;;19.42;32.94;101846.78;4916997;28;97750;-61
2021/03/20 11:19:11;;;;;;;0.80;0.20;;;;;;;19.25;33.13;101847.25;4917016;28;124535;-61
2021/03/20 11:21:42;;;;;;;1.00;0.30;;;;;;;18.87;33.39;101845.25;4918328;28;98268;-58
2021/03/20 11:24:23;;;;;;;1.13;0.20;;;;;;;18.64;33.99;101846.81;4918019;28;116673;-61
2021/03/20 11:26:49;;;;;;;1.13;0.22;;;;;;;18.25;34.55;101840.66;4916869;28;98040;-62
2021/03/20 11:29:22;;;;;;;0.95;0.20;;;;;;;18.06;34.51;101844.06;4919444;28;98043;-58
2021/03/20 11:32:07;;;;;;;0.90;0.20;;;;;;;17.97;34.81;101842.22;4917598;28;98282;-58
2021/03/20 11:34:41;;;;;;;1.30;0.20;;;;;;;17.70;35.11;101838.00;4885181;28;98001;-59
2021/03/20 11:37:09;;;;;;;1.60;0.20;;;;;;;17.37;35.00;101834.91;4901015;28;99905;-61
2021/03/20 11:39:35;;;;;;;1.45;0.30;;;;;;;16.96;35.36;101838.88;4934232;28;98075;-61
2021/03/20 11:42:10;;;;;;;1.15;0.20;;;;;;;16.94;35.79;101836.44;4915942;28;128119;-61
2021/03/20 11:44:43;;;;;;;0.80;0.20;;;;;;;17.03;35.23;101834.78;4917166;28;114095;-61
2021/03/20 11:47:29;;;;;;;1.48;0.30;;;;;;;17.15;35.40;101818.13;4918985;28;98435;-61
2021/03/20 11:49:57;;;;;;;1.33;0.30;;;;;;;17.33;34.90;101811.22;4902123;28;98081;-61
2021/03/20 11:52:30;;;;;;;1.23;0.30;;;;;;;17.88;33.78;101804.66;4916430;28;99268;-62
2021/03/20 11:55:05;;;;;;;1.23;0.30;;;;;;;18.19;33.43;101798.91;4933362;28;99214;-61
2021/03/20 11:57:39;;;;;;;1.15;0.30;;;;;;;18.35;33.57;101789.53;4933681;28;100914;-58
2021/03/20 12:00:45;;;;;;;1.02;0.20;;;;;;;18.68;33.11;101786.19;4917037;28;97986;-58
2021/03/20 12:03:24;;;;;;;1.30;0.25;;;;;;;18.90;33.04;101778.28;4908152;28;97898;-58
2021/03/20 12:06:15;;;;;;;1.50;0.30;;;;;;;18.99;32.99;101770.28;4912696;28;99870;-58
2021/03/20 12:08:55;;;;;;;1.33;0.30;;;;;;;19.08;33.37;101768.50;4918548;28;97951;-58
2021/03/20 12:11:46;;;;;;;1.10;0.30;;;;;;;19.27;33.09;101757.59;4933357;28;98122;-59
2021/03/20 12:14:33;;;;;;;1.35;0.30;;;;;;;19.45;33.07;101755.97;4918715;28;98473;-59
2021/03/20 12:17:27;;;;;;;1.05;0.38;;;;;;;19.58;32.81;101755.25;4916025;28;98688;-61
2021/03/20 12:20:26;;;;;;;1.40;0.43;;;;;;;19.67;33.00;101753.47;4917701;28;98216;-59
2021/03/20 12:22:54;;;;;;;1.38;0.40;;;;;;;19.56;32.80;101746.50;4916855;28;97943;-60